Time;durP1;ratioP1;P1;durP2;ratioP2;P2;SDS_P1;SDS_P2;PMS_P1;PMS_P2;Temp;Humidity;BMP_temperature;BMP_pressure;BME280_temperature;BME280_humidity;BME280_pressure;Samples;Min_cycle;Max_cycle;Signal;HPM_P1;HPM_P2
2022/07/21 00:02:58;;;;;;;4.22;1.73;;;;;;;22.95;46.60;100499.44;5589674;31;33950;-71
2022/07/21 00:06:02;;;;;;;5.28;1.98;;;;;;;22.92;46.42;100506.19;5589651;31;34674;-71
2022/07/21 00:09:04;;;;;;;10.18;1.98;;;;;;;22.91;46.54;100511.81;5590020;31;34006;-70
2022/07/21 00:12:07;;;;;;;7.25;1.85;;;;;;;23.04;47.00;100519.63;5589545;31;34159;-70
2022/07/21 00:15:12;;;;;;;4.22;2.00;;;;;;;23.28;46.91;100528.41;5589920;31;34556;-71
2022/07/21 00:18:15;;;;;;;6.97;2.17;;;;;;;23.22;47.74;100524.78;5589692;31;33909;-72
2022/07/21 00:21:18;;;;;;;5.32;2.12;;;;;;;23.21;48.10;100519.63;5589447;31;34678;-71
2022/07/21 00:24:21;;;;;;;5.78;2.08;;;;;;;23.10;48.30;100526.75;5589840;31;34047;-71
2022/07/21 00:27:24;;;;;;;7.72;2.03;;;;;;;23.07;49.06;100526.44;5589472;31;33924;-71
2022/07/21 00:30:32;;;;;;;5.30;2.00;;;;;;;22.94;49.54;100533.00;5589470;31;34582;-70
2022/07/21 00:33:34;;;;;;;6.40;2.15;;;;;;;22.95;48.82;100537.31;5589465;31;33935;-71
2022/07/21 00:36:37;;;;;;;5.53;1.98;;;;;;;22.92;48.86;100538.63;5589436;31;33944;-71
2022/07/21 00:39:40;;;;;;;4.20;1.70;;;;;;;22.87;49.10;100541.25;5588790;31;33927;-71
2022/07/21 00:42:43;;;;;;;3.80;1.80;;;;;;;22.74;49.05;100538.06;5589107;31;34820;-71
2022/07/21 00:45:46;;;;;;;3.95;1.90;;;;;;;22.67;49.08;100540.03;5589354;31;34609;-71
2022/07/21 00:48:49;;;;;;;3.05;1.83;;;;;;;22.60;49.28;100534.81;5589422;31;33905;-71
2022/07/21 00:51:52;;;;;;;7.25;1.77;;;;;;;22.54;49.50;100528.47;5589678;31;34385;-71
2022/07/21 00:54:55;;;;;;;6.03;2.25;;;;;;;22.49;49.28;100530.25;5589090;31;33941;-70
2022/07/21 00:57:58;;;;;;;4.15;1.83;;;;;;;22.42;49.51;100527.69;5589326;31;34219;-71
2022/07/21 01:01:01;;;;;;;3.60;1.83;;;;;;;22.34;49.78;100535.37;5589154;31;33952;-71
2022/07/21 01:04:03;;;;;;;3.62;1.80;;;;;;;22.43;50.19;100532.03;5588981;31;34097;-71
2022/07/21 01:07:07;;;;;;;4.35;2.03;;;;;;;22.52;49.94;100532.47;5588258;31;35218;-71
2022/07/21 01:10:11;;;;;;;5.40;1.83;;;;;;;22.59;51.74;100530.44;5588950;31;34091;-71
2022/07/21 01:13:14;;;;;;;3.95;1.67;;;;;;;22.62;52.17;100529.94;5588747;31;34226;-70
2022/07/21 01:16:17;;;;;;;4.50;1.60;;;;;;;22.57;52.06;100529.84;5589178;31;33868;-71
2022/07/21 01:19:20;;;;;;;4.82;1.60;;;;;;;22.67;51.57;100534.63;5588003;31;34004;-71
2022/07/21 01:22:23;;;;;;;5.50;1.83;;;;;;;22.63;51.60;100531.59;5588661;31;33965;-70
2022/07/21 01:25:26;;;;;;;3.25;1.70;;;;;;;22.58;51.89;100536.09;5588277;31;33884;-71
2022/07/21 01:28:28;;;;;;;3.08;1.80;;;;;;;22.32;52.29;100532.91;5588609;31;34680;-71
2022/07/21 01:31:31;;;;;;;2.40;1.60;;;;;;;22.38;51.57;100531.94;5589016;31;34017;-70
2022/07/21 01:34:34;;;;;;;4.32;1.75;;;;;;;22.42;51.67;100529.56;5555265;32;33982;-70
2022/07/21 01:37:41;;;;;;;2.42;1.95;;;;;;;22.26;52.08;100531.19;5569140;32;34080;-70
2022/07/21 01:44:19;;;;;;;6.12;1.70;;;;;;;22.13;53.70;100530.62;5550939;32;34255;-71
2022/07/21 01:47:22;;;;;;;4.32;1.90;;;;;;;21.96;54.13;100528.69;5569028;32;34592;-71
2022/07/21 01:50:29;;;;;;;8.90;1.92;;;;;;;21.87;54.50;100532.78;5568682;32;34076;-71
2022/07/21 01:53:31;;;;;;;4.20;1.80;;;;;;;21.78;54.59;100536.09;5568557;32;33891;-71
2022/07/21 01:56:36;;;;;;;2.40;1.80;;;;;;;21.81;54.42;100524.81;5554737;32;33462;-71
2022/07/21 01:59:39;;;;;;;8.05;1.95;;;;;;;21.81;54.43;100531.03;5568394;32;33834;-71
2022/07/21 02:02:42;;;;;;;4.40;1.83;;;;;;;21.82;54.08;100527.28;5568330;32;33917;-71
2022/07/21 02:05:45;;;;;;;5.62;2.00;;;;;;;21.82;54.06;100540.78;5568338;32;33959;-70
2022/07/21 02:08:48;;;;;;;3.20;1.92;;;;;;;21.85;53.92;100542.16;5554488;32;33277;-71
2022/07/21 02:11:52;;;;;;;4.57;1.90;;;;;;;21.91;53.78;100539.34;5568211;32;34555;-71
2022/07/21 02:14:54;;;;;;;2.67;1.83;;;;;;;21.99;53.82;100536.31;5568361;32;34764;-71
2022/07/21 02:17:58;;;;;;;5.78;1.92;;;;;;;21.88;53.74;100531.69;5570113;32;34671;-71
2022/07/21 02:21:01;;;;;;;8.88;2.37;;;;;;;21.69;54.88;100538.31;5571385;32;33901;-71
2022/07/21 02:24:04;;;;;;;7.53;2.33;;;;;;;21.57;55.50;100532.13;5570845;32;34593;-70
2022/07/21 02:27:06;;;;;;;7.20;2.10;;;;;;;21.46;56.94;100538.34;5571043;32;33916;-70
2022/07/21 02:30:12;;;;;;;4.30;1.62;;;;;;;21.47;56.52;100531.87;5564104;32;228073;-71
2022/07/21 02:33:15;;;;;;;7.93;1.98;;;;;;;21.38;57.02;100534.12;5581921;31;33927;-71
2022/07/21 02:36:18;;;;;;;5.12;1.92;;;;;;;21.30;57.91;100537.16;5590622;31;34188;-70
2022/07/21 02:39:21;;;;;;;6.32;1.98;;;;;;;21.23;59.09;100539.16;5590479;31;33861;-70
2022/07/21 02:42:24;;;;;;;5.78;2.17;;;;;;;21.44;59.39;100538.59;5590412;31;34622;-70
2022/07/21 02:45:27;;;;;;;6.07;2.28;;;;;;;21.41;60.48;100532.81;5590283;31;35415;-70
2022/07/21 02:48:29;;;;;;;7.12;1.70;;;;;;;21.35;60.27;100533.78;5590385;31;33907;-70
2022/07/21 02:51:32;;;;;;;6.00;1.92;;;;;;;21.29;59.96;100549.03;5590349;31;34353;-71
2022/07/21 02:54:35;;;;;;;5.30;2.05;;;;;;;21.30;59.60;100541.75;5589641;31;32728;-70
2022/07/21 02:57:38;;;;;;;6.07;1.80;;;;;;;21.42;57.75;100543.38;5590157;31;33947;-70
2022/07/21 03:00:44;;;;;;;7.18;2.22;;;;;;;21.40;58.84;100547.34;5590282;31;33910;-71
2022/07/21 03:03:46;;;;;;;5.60;1.70;;;;;;;21.30;59.27;100542.53;5590131;31;34018;-70
2022/07/21 03:06:49;;;;;;;4.20;1.90;;;;;;;21.27;58.29;100550.28;5590186;31;34047;-71
2022/07/21 03:09:52;;;;;;;6.47;2.03;;;;;;;21.25;58.15;100539.75;5576407;31;34013;-71
2022/07/21 03:12:55;;;;;;;4.87;2.00;;;;;;;21.18;56.72;100547.94;5590191;31;34625;-71
2022/07/21 03:15:58;;;;;;;4.57;1.90;;;;;;;21.14;56.56;100548.66;5589198;31;34804;-71
2022/07/21 03:19:01;;;;;;;6.55;2.22;;;;;;;21.03;58.01;100549.41;5589438;31;34659;-71
2022/07/21 03:22:03;;;;;;;4.75;1.77;;;;;;;20.96;57.02;100548.72;5590113;31;33927;-70
2022/07/21 03:25:07;;;;;;;11.52;2.10;;;;;;;20.93;57.33;100547.28;5589949;31;34067;-71
2022/07/21 03:28:09;;;;;;;5.35;1.87;;;;;;;20.88;57.59;100540.94;5588993;31;34059;-70
2022/07/21 03:31:12;;;;;;;4.60;1.65;;;;;;;20.91;58.19;100546.72;5589974;31;34429;-71
2022/07/21 03:34:15;;;;;;;3.50;1.83;;;;;;;20.91;58.59;100544.00;5589836;31;34694;-70
2022/07/21 03:37:18;;;;;;;3.80;1.90;;;;;;;21.12;57.20;100548.84;5590301;31;33945;-70
2022/07/21 03:40:24;;;;;;;4.15;2.10;;;;;;;21.02;57.61;100545.06;5590235;31;34632;-70
2022/07/21 03:43:26;;;;;;;6.35;1.80;;;;;;;21.00;58.77;100552.59;5590334;31;33861;-70
2022/07/21 03:46:29;;;;;;;6.25;2.28;;;;;;;21.16;58.69;100552.75;5589572;31;34261;-70
2022/07/21 03:49:32;;;;;;;5.93;2.37;;;;;;;21.16;59.25;100551.91;5589949;31;33990;-70
2022/07/21 03:52:34;;;;;;;4.68;1.90;;;;;;;21.21;58.86;100550.16;5589642;31;33906;-70
2022/07/21 03:55:37;;;;;;;4.30;2.30;;;;;;;21.19;58.81;100548.78;5589741;31;35283;-70
2022/07/21 03:58:40;;;;;;;3.20;2.10;;;;;;;21.22;58.83;100556.41;5589828;31;34021;-70
2022/07/21 04:01:43;;;;;;;4.82;1.92;;;;;;;21.40;58.50;100558.97;5589606;31;34638;-70
2022/07/21 04:04:46;;;;;;;4.15;1.87;;;;;;;21.49;60.22;100562.19;5589223;31;34582;-70
2022/07/21 04:07:51;;;;;;;7.25;2.33;;;;;;;21.45;58.39;100567.19;5589538;31;34123;-70
2022/07/21 04:10:54;;;;;;;8.52;2.28;;;;;;;21.52;58.02;100575.19;5589627;31;34562;-70
2022/07/21 04:13:57;;;;;;;6.03;2.20;;;;;;;21.60;57.87;100566.72;5589587;31;34230;-71
2022/07/21 04:17:00;;;;;;;7.50;2.20;;;;;;;21.64;57.79;100568.72;5589838;31;34870;-70
2022/07/21 04:20:04;;;;;;;3.87;1.75;;;;;;;21.86;56.51;100576.22;5589576;31;33928;-70
2022/07/21 04:23:07;;;;;;;4.15;2.10;;;;;;;21.86;55.47;100568.94;5589551;31;34014;-70
2022/07/21 04:26:10;;;;;;;4.20;2.10;;;;;;;21.97;56.74;100578.97;5589419;31;33890;-69
2022/07/21 04:29:13;;;;;;;4.57;1.92;;;;;;;22.07;56.34;100579.16;5589585;31;34543;-70
2022/07/21 04:32:15;;;;;;;9.38;2.37;;;;;;;22.13;56.42;100573.84;5589272;31;34009;-70
2022/07/21 04:35:19;;;;;;;5.40;2.03;;;;;;;22.20;56.04;100577.25;5589406;31;34126;-71
2022/07/21 04:38:21;;;;;;;7.90;2.28;;;;;;;22.20;55.80;100579.97;5588650;31;34798;-70
2022/07/21 04:41:24;;;;;;;4.53;2.10;;;;;;;22.28;55.88;100582.28;5588653;31;33986;-70
2022/07/21 04:44:27;;;;;;;3.80;2.33;;;;;;;22.38;56.31;100587.88;5588456;31;32505;-70
2022/07/21 04:47:30;;;;;;;3.95;2.08;;;;;;;22.44;56.31;100574.25;5588465;31;32994;-70
2022/07/21 04:50:32;;;;;;;4.78;1.90;;;;;;;22.61;56.71;100571.56;5589172;31;33979;-70
2022/07/21 04:53:35;;;;;;;9.32;2.50;;;;;;;22.67;57.85;100572.50;5589149;31;34034;-70
2022/07/21 04:56:38;;;;;;;5.12;2.17;;;;;;;22.70;57.38;100582.84;5589032;31;34653;-70
2022/07/21 04:59:41;;;;;;;8.13;2.33;;;;;;;22.78;59.71;100577.88;5589013;31;34684;-70
2022/07/21 05:02:44;;;;;;;6.15;2.37;;;;;;;22.83;56.52;100590.69;5588290;31;33423;-70
2022/07/21 05:05:47;;;;;;;5.40;2.40;;;;;;;23.02;54.97;100586.69;5588888;31;33999;-70
2022/07/21 05:08:50;;;;;;;7.80;2.45;;;;;;;23.12;54.81;100583.34;5588759;31;33988;-70
2022/07/21 05:11:53;;;;;;;6.75;2.12;;;;;;;23.28;52.49;100587.97;5588864;31;34041;-70
2022/07/21 05:14:55;;;;;;;12.68;2.87;;;;;;;23.39;52.58;100585.16;5588741;31;33947;-69
2022/07/21 05:17:58;;;;;;;7.03;2.00;;;;;;;23.53;51.22;100582.94;5588860;31;35092;-69
2022/07/21 05:21:01;;;;;;;7.07;1.80;;;;;;;23.69;51.59;100586.72;5588390;31;34704;-70
2022/07/21 05:24:04;;;;;;;9.48;2.53;;;;;;;23.83;52.11;100585.28;5588716;31;34005;-70
2022/07/21 05:27:07;;;;;;;7.40;2.20;;;;;;;23.88;51.16;100596.19;5588115;31;35255;-70
2022/07/21 05:30:11;;;;;;;4.12;1.90;;;;;;;24.00;50.79;100590.69;5587909;31;34651;-69
2022/07/21 05:33:13;;;;;;;10.90;2.25;;;;;;;24.13;50.15;100598.44;5587144;31;32720;-69
2022/07/21 05:36:18;;;;;;;6.07;2.03;;;;;;;24.38;50.26;100596.06;5588030;31;34181;-68
2022/07/21 05:39:21;;;;;;;6.35;2.10;;;;;;;24.55;49.02;100604.13;5587132;31;34181;-68
2022/07/21 05:42:24;;;;;;;13.13;2.85;;;;;;;24.65;49.96;100607.75;5587387;31;34301;-68
2022/07/21 05:45:27;;;;;;;7.82;2.55;;;;;;;24.79;49.65;100602.75;5587949;31;34238;-68
2022/07/21 05:48:30;;;;;;;7.90;2.40;;;;;;;24.91;49.50;100606.19;5587616;31;34123;-69
2022/07/21 05:51:32;;;;;;;18.67;2.58;;;;;;;25.03;50.62;100600.56;5574598;31;32430;-69
2022/07/21 05:54:35;;;;;;;10.32;2.20;;;;;;;25.09;50.19;100605.81;5589702;31;33955;-69
2022/07/21 05:57:39;;;;;;;18.62;2.95;;;;;;;25.21;50.10;100605.66;5590583;31;34652;-68
2022/07/21 06:01:07;;;;;;;11.32;2.85;;;;;;;25.37;48.06;100610.09;5590366;31;34637;-69
2022/07/21 06:04:11;;;;;;;12.15;2.05;;;;;;;25.60;46.89;100606.25;5590523;31;33922;-68
2022/07/21 06:07:13;;;;;;;6.72;2.72;;;;;;;25.56;46.15;100607.84;5590586;31;34095;-70
2022/07/21 06:10:16;;;;;;;3.75;2.15;;;;;;;25.83;45.55;100615.91;5589734;31;33194;-70
2022/07/21 06:13:25;;;;;;;8.00;2.20;;;;;;;25.98;43.01;100616.00;5590246;31;34146;-69
2022/07/21 06:16:28;;;;;;;9.43;2.30;;;;;;;26.10;43.38;100603.00;5590278;31;35153;-69
2022/07/21 06:19:31;;;;;;;6.80;2.53;;;;;;;26.25;44.10;100603.09;5589809;31;34055;-69
2022/07/21 06:22:34;;;;;;;5.05;2.40;;;;;;;26.40;44.16;100596.91;5576550;31;33289;-70
2022/07/21 06:25:37;;;;;;;5.10;2.30;;;;;;;26.60;43.27;100602.41;5590159;31;34034;-70
2022/07/21 06:28:41;;;;;;;5.15;2.35;;;;;;;26.70;43.06;100609.78;5590495;31;33981;-70
2022/07/21 06:31:44;;;;;;;7.28;2.70;;;;;;;26.79;42.64;100600.00;5589506;31;33921;-70
2022/07/21 06:34:46;;;;;;;9.15;2.60;;;;;;;26.89;42.45;100602.78;5589650;31;35234;-69
2022/07/21 06:37:49;;;;;;;11.55;2.50;;;;;;;27.03;43.23;100603.06;5590178;31;34433;-69
2022/07/21 06:40:52;;;;;;;7.62;2.83;;;;;;;27.20;41.90;100603.63;5590445;31;35272;-70
2022/07/21 06:43:55;;;;;;;9.40;2.95;;;;;;;27.43;40.99;100605.81;5590136;31;33904;-69
2022/07/21 06:47:04;;;;;;;6.57;2.97;;;;;;;27.56;38.75;100604.44;5590506;31;34324;-70
2022/07/21 06:50:08;;;;;;;5.40;2.60;;;;;;;27.71;38.49;100595.44;5590062;31;34236;-69
2022/07/21 06:53:11;;;;;;;5.18;2.45;;;;;;;27.86;40.96;100607.13;5590009;31;33940;-69
2022/07/21 06:56:13;;;;;;;5.70;2.92;;;;;;;28.10;38.66;100601.88;5589960;31;34022;-69
2022/07/21 06:59:19;;;;;;;5.95;2.70;;;;;;;28.32;38.75;100604.28;5589597;31;33188;-70
2022/07/21 07:02:26;;;;;;;4.10;2.40;;;;;;;28.45;38.44;100600.94;5576011;31;33891;-69
2022/07/21 07:05:30;;;;;;;8.90;2.60;;;;;;;28.65;36.26;100602.75;5589971;31;34715;-70
2022/07/21 07:08:33;;;;;;;5.78;2.40;;;;;;;28.85;36.62;100602.66;5590096;31;34527;-70
2022/07/21 07:11:42;;;;;;;8.30;3.22;;;;;;;29.09;37.09;100602.78;5589999;31;34581;-70
2022/07/21 07:15:05;;;;;;;6.07;2.87;;;;;;;29.39;37.18;100605.25;5589384;31;32841;-70
2022/07/21 07:18:09;;;;;;;7.18;2.80;;;;;;;29.56;35.32;100600.19;5588854;31;32389;-70
2022/07/21 07:21:11;;;;;;;3.42;2.50;;;;;;;29.77;35.53;100601.59;5589453;31;34321;-70
2022/07/21 07:24:14;;;;;;;14.10;3.20;;;;;;;29.92;35.86;100602.59;5588920;31;34029;-69
2022/07/21 07:27:17;;;;;;;6.97;2.60;;;;;;;30.20;35.34;100608.00;5589638;31;34090;-69
2022/07/21 07:30:25;;;;;;;7.80;2.72;;;;;;;30.49;34.12;100596.19;5589474;31;34166;-70
2022/07/21 07:33:28;;;;;;;5.03;2.75;;;;;;;30.82;33.58;100599.81;5589519;31;34281;-69
2022/07/21 07:36:32;;;;;;;3.42;2.60;;;;;;;31.40;31.73;100603.81;5589829;31;34784;-68
2022/07/21 07:39:37;;;;;;;5.47;2.47;;;;;;;32.19;32.34;100603.78;5589056;31;32420;-69
2022/07/21 07:42:40;;;;;;;3.75;2.37;;;;;;;32.99;29.35;100598.41;5590074;31;34687;-70
2022/07/21 07:45:43;;;;;;;5.70;2.15;;;;;;;33.75;28.87;100598.44;5589791;31;34160;-69
2022/07/21 07:48:47;;;;;;;6.15;2.62;;;;;;;33.96;27.68;100589.31;5588977;31;33970;-69
2022/07/21 07:51:51;;;;;;;5.87;2.30;;;;;;;34.69;26.77;100596.03;5588579;31;35390;-69
2022/07/21 07:54:54;;;;;;;7.45;2.50;;;;;;;35.15;26.18;100594.53;5589651;31;34225;-70
2022/07/21 07:57:58;;;;;;;4.03;2.53;;;;;;;34.91;26.92;100592.28;5589314;31;33926;-69
2022/07/21 08:01:01;;;;;;;5.75;2.60;;;;;;;35.78;25.13;100592.97;5588670;31;34544;-70
2022/07/21 08:04:10;;;;;;;6.03;2.17;;;;;;;36.57;24.92;100588.31;5588867;31;32483;-70
2022/07/21 08:07:12;;;;;;;6.68;2.75;;;;;;;37.36;24.13;100592.03;5575434;31;33089;-69
2022/07/21 08:10:15;;;;;;;9.65;2.37;;;;;;;36.98;24.61;100586.72;5589157;31;33519;-70
2022/07/21 08:13:38;;;;;;;2.55;2.03;;;;;;;37.44;23.98;100591.12;5588204;31;33911;-70
2022/07/21 08:16:42;;;;;;;4.45;2.20;;;;;;;37.40;22.19;100584.69;5588278;31;34618;-69
2022/07/21 08:19:45;;;;;;;5.20;2.50;;;;;;;38.20;22.36;100585.00;5589097;31;34334;-67
2022/07/21 08:22:47;;;;;;;4.65;2.30;;;;;;;38.13;22.82;100590.34;5588223;31;34781;-68
2022/07/21 08:25:50;;;;;;;6.97;2.60;;;;;;;38.63;21.91;100582.41;5589065;31;34481;-68
2022/07/21 08:28:55;;;;;;;2.55;2.00;;;;;;;38.39;22.39;100581.66;5589173;31;34021;-69
2022/07/21 08:31:59;;;;;;;7.62;2.35;;;;;;;38.77;21.21;100581.22;5588317;31;33971;-71
2022/07/21 08:35:08;;;;;;;3.35;2.42;;;;;;;38.97;21.10;100578.25;5588843;31;34006;-68
2022/07/21 08:38:13;;;;;;;4.00;2.47;;;;;;;38.40;20.53;100574.91;5588987;31;34435;-66
2022/07/21 08:41:16;;;;;;;5.15;2.20;;;;;;;37.56;22.92;100574.59;5589033;31;34043;-67
2022/07/21 08:44:22;;;;;;;6.32;2.70;;;;;;;38.01;21.48;100563.44;5589239;31;33818;-68
2022/07/21 08:47:26;;;;;;;5.40;2.00;;;;;;;39.85;20.22;100568.75;5587867;31;33018;-68
2022/07/21 08:50:35;;;;;;;2.70;1.80;;;;;;;40.22;19.67;100563.69;5588565;31;34770;-67
2022/07/21 08:53:38;;;;;;;6.25;2.10;;;;;;;39.31;20.37;100565.72;5587762;31;33235;-69
2022/07/21 08:56:40;;;;;;;4.00;2.17;;;;;;;39.84;20.19;100564.38;5588263;31;34056;-69
2022/07/21 08:59:43;;;;;;;4.03;2.00;;;;;;;41.07;17.76;100570.28;5589284;31;34580;-70
2022/07/21 09:03:08;;;;;;;4.97;2.22;;;;;;;40.67;19.16;100560.31;5588922;31;34105;-69
2022/07/21 09:06:15;;;;;;;6.97;2.22;;;;;;;41.51;18.12;100551.22;5575378;31;32920;-70
2022/07/21 09:09:20;;;;;;;;;;;;;;;42.01;17.97;100556.44;5587807;31;33044;-70
2022/07/21 09:12:24;;;;;;;2.80;1.95;;;;;;;41.79;17.22;100554.47;5588835;31;34586;-71
2022/07/21 09:15:28;;;;;;;3.47;2.42;;;;;;;40.27;18.60;100541.19;5588361;31;34056;-70
2022/07/21 09:18:31;;;;;;;12.43;2.50;;;;;;;41.22;17.99;100544.31;5574935;31;33393;-69
2022/07/21 09:21:35;;;;;;;4.43;2.00;;;;;;;41.62;18.62;100536.31;5588513;31;34014;-68
2022/07/21 09:24:47;;;;;;;3.17;1.85;;;;;;;42.18;17.26;100529.19;5587283;31;33593;-69
2022/07/21 09:28:06;;;;;;;5.22;1.80;;;;;;;40.60;18.34;100529.56;5577520;31;33988;-69
2022/07/21 09:31:14;;;;;;;6.15;2.35;;;;;;;40.08;18.61;100529.19;5590331;31;35247;-69
2022/07/21 09:34:17;;;;;;;3.08;1.87;;;;;;;42.02;16.93;100523.81;5576720;31;33168;-69
2022/07/21 09:37:22;;;;;;;10.00;2.03;;;;;;;42.99;16.94;100524.69;5590118;31;33865;-69
2022/07/21 09:40:25;;;;;;;4.05;2.15;;;;;;;39.15;20.01;100508.59;5590264;31;34716;-68
2022/07/21 09:43:41;;;;;;;8.35;2.08;;;;;;;38.09;20.37;100509.88;5589886;31;34700;-70
2022/07/21 09:47:09;;;;;;;3.25;1.95;;;;;;;39.17;19.72;100504.28;5590184;31;33472;-69
2022/07/21 09:50:17;;;;;;;11.60;2.20;;;;;;;38.03;20.31;100500.19;5590155;31;33984;-69
2022/07/21 09:53:48;;;;;;;4.87;2.30;;;;;;;37.15;21.29;100495.25;5590010;31;33753;-69
2022/07/21 09:56:54;;;;;;;6.03;2.65;;;;;;;37.68;21.02;100486.00;5576413;31;34803;-69
2022/07/21 10:00:02;;;;;;;8.57;1.92;;;;;;;39.46;19.06;100489.19;5576856;31;31821;-69
2022/07/21 10:03:13;;;;;;;2.83;1.90;;;;;;;39.20;19.13;100491.66;5590636;31;34618;-68
2022/07/21 10:06:18;;;;;;;5.72;2.03;;;;;;;41.97;17.24;100491.50;5590683;31;34350;-68
2022/07/21 10:09:21;;;;;;;4.93;1.92;;;;;;;44.71;15.17;100486.38;5589308;31;32525;-68
2022/07/21 10:12:27;;;;;;;3.15;1.75;;;;;;;44.29;14.36;100485.00;5590910;31;33954;-68
2022/07/21 10:15:30;;;;;;;9.05;2.00;;;;;;;45.17;14.08;100473.25;5590411;31;33891;-69
2022/07/21 10:18:50;;;;;;;4.55;2.00;;;;;;;45.85;13.57;100486.03;5589216;31;33971;-69
2022/07/21 10:22:00;;;;;;;2.35;2.08;;;;;;;46.37;12.94;100475.06;5590390;31;34687;-69
2022/07/21 10:25:03;;;;;;;4.07;1.95;;;;;;;45.77;13.98;100473.22;5589648;31;34095;-69
2022/07/21 10:28:22;;;;;;;4.15;1.90;;;;;;;45.23;13.59;100474.44;5590289;31;34600;-69
2022/07/21 10:31:27;;;;;;;2.97;1.70;;;;;;;46.09;13.30;100469.56;5590515;31;34001;-69
2022/07/21 10:34:36;;;;;;;6.55;1.90;;;;;;;47.03;13.01;100461.88;5589292;31;32841;-69
2022/07/21 10:37:39;;;;;;;4.72;2.30;;;;;;;46.82;13.52;100458.41;5589393;31;32391;-69
2022/07/21 10:40:42;;;;;;;8.57;2.50;;;;;;;46.92;13.08;100454.72;5590381;31;34014;-68
2022/07/21 10:43:44;;;;;;;20.85;4.12;;;;;;;48.05;12.72;100456.50;5589573;31;32641;-68
2022/07/21 10:47:02;;;;;;;3.87;2.20;;;;;;;49.20;12.20;100457.28;5589122;31;34667;-69
2022/07/21 10:50:07;;;;;;;3.10;1.80;;;;;;;49.69;11.15;100449.16;5590340;31;33922;-69
2022/07/21 10:53:15;;;;;;;6.12;1.80;;;;;;;48.56;11.43;100449.00;5590202;31;34524;-69
2022/07/21 10:56:31;;;;;;;3.47;2.10;;;;;;;49.18;10.75;100448.47;5576436;31;32911;-70
2022/07/21 10:59:52;;;;;;;;;;;;;;;49.00;10.64;100437.44;5590459;31;34124;-69
2022/07/21 11:03:01;;;;;;;3.83;1.90;;;;;;;48.71;10.92;100436.31;5576480;31;34381;-70
2022/07/21 11:06:24;;;;;;;2.85;1.80;;;;;;;48.69;10.82;100428.31;5589187;31;34121;-67
2022/07/21 11:09:31;;;;;;;2.35;1.55;;;;;;;45.81;13.43;100417.16;5590169;31;34005;-69
2022/07/21 11:12:57;;;;;;;3.00;1.90;;;;;;;46.37;12.25;100416.16;5589565;31;32860;-70
2022/07/21 11:16:12;;;;;;;4.82;2.22;;;;;;;48.57;10.83;100425.25;5589299;31;34161;-69
2022/07/21 11:19:40;;;;;;;5.40;2.20;;;;;;;48.44;11.34;100412.97;5589693;31;32410;-69
2022/07/21 11:22:54;;;;;;;5.60;2.80;;;;;;;48.88;10.63;100407.09;5589469;31;34051;-69
2022/07/21 11:25:57;;;;;;;4.87;2.10;;;;;;;47.92;11.91;100408.41;5589007;31;33636;-69
2022/07/21 11:29:06;;;;;;;6.60;2.05;;;;;;;49.23;10.53;100408.53;5588734;31;32774;-69
2022/07/21 11:32:11;;;;;;;2.28;1.77;;;;;;;49.05;11.04;100406.00;5589695;31;34232;-69
2022/07/21 11:35:14;;;;;;;2.20;1.60;;;;;;;51.25;9.10;100407.72;5589206;31;35300;-69
2022/07/21 11:38:17;;;;;;;6.45;2.03;;;;;;;50.94;9.74;100400.03;5589113;31;33066;-69
2022/07/21 11:41:19;;;;;;;4.12;1.90;;;;;;;50.08;10.28;100403.22;5589203;31;33393;-71
2022/07/21 11:44:24;;;;;;;3.03;1.70;;;;;;;50.93;9.14;100393.63;5589806;31;34076;-70
2022/07/21 11:47:27;;;;;;;4.62;1.95;;;;;;;51.90;8.32;100399.06;5589734;31;34632;-69
2022/07/21 11:50:30;;;;;;;2.90;2.05;;;;;;;51.38;8.77;100387.97;5588926;31;34065;-69
2022/07/21 11:53:33;;;;;;;5.57;2.28;;;;;;;50.91;8.80;100379.13;5576071;31;33603;-68
2022/07/21 11:56:40;;;;;;;4.65;1.90;;;;;;;50.41;9.35;100379.50;5589756;31;33960;-68
2022/07/21 11:59:44;;;;;;;5.25;1.90;;;;;;;47.75;10.65;100374.88;5588718;31;33985;-69
2022/07/21 12:02:48;;;;;;;2.33;1.75;;;;;;;50.95;8.78;100362.87;5589583;31;34875;-70
2022/07/21 12:05:55;;;;;;;3.67;1.85;;;;;;;51.41;8.62;100366.50;5588471;31;32104;-70
2022/07/21 12:08:58;;;;;;;3.35;1.90;;;;;;;50.49;9.65;100366.84;5589626;31;34293;-70
2022/07/21 12:12:01;;;;;;;3.80;2.05;;;;;;;52.62;8.06;100360.84;5575837;31;32539;-70
2022/07/21 12:15:31;;;;;;;5.80;2.08;;;;;;;53.63;7.91;100358.47;5588459;31;32673;-69
2022/07/21 12:18:34;;;;;;;11.90;1.87;;;;;;;50.28;9.57;100350.38;5588627;31;34021;-68
2022/07/21 12:21:52;;;;;;;8.25;2.08;;;;;;;50.70;8.98;100354.22;5588602;31;32708;-69
2022/07/21 12:24:57;;;;;;;3.22;2.05;;;;;;;48.65;10.37;100342.28;5588652;31;32737;-69
2022/07/21 12:28:01;;;;;;;6.20;2.00;;;;;;;48.10;10.43;100351.12;5588069;31;33096;-69
2022/07/21 12:31:11;;;;;;;2.92;1.80;;;;;;;47.03;11.31;100348.69;5575213;31;33118;-68
2022/07/21 12:34:17;;;;;;;4.45;1.85;;;;;;;49.03;9.88;100346.44;5589082;31;34115;-70
2022/07/21 12:37:52;;;;;;;3.93;1.60;;;;;;;50.57;8.85;100342.84;5589326;31;34796;-70
2022/07/21 12:41:00;;;;;;;4.15;1.65;;;;;;;51.18;8.71;100340.06;5589438;31;34118;-71
2022/07/21 12:44:23;;;;;;;6.53;2.00;;;;;;;52.48;7.89;100333.78;5589112;31;35560;-70
2022/07/21 12:47:26;;;;;;;5.05;1.73;;;;;;;50.63;8.84;100337.47;5588718;31;33868;-70
2022/07/21 12:50:29;;;;;;;2.92;1.90;;;;;;;51.15;8.62;100326.84;5589470;31;34009;-70
2022/07/21 12:53:36;;;;;;;3.92;1.90;;;;;;;52.72;7.62;100322.88;5588105;31;33945;-70
2022/07/21 12:56:38;;;;;;;;;;;;;;;52.38;7.71;100318.72;5589155;31;33949;-70
2022/07/21 12:59:41;;;;;;;2.75;1.80;;;;;;;53.91;7.22;100316.06;5588770;31;35030;-71
2022/07/21 13:02:53;;;;;;;4.45;1.80;;;;;;;54.67;6.55;100319.03;5575170;31;33230;-70
2022/07/21 13:05:56;;;;;;;6.18;1.87;;;;;;;55.84;5.92;100313.75;5589020;31;34275;-70
2022/07/21 13:08:59;;;;;;;3.65;1.92;;;;;;;55.22;6.22;100308.50;5588950;31;34647;-71
2022/07/21 13:12:02;;;;;;;3.17;1.60;;;;;;;52.87;7.10;100306.97;5589007;31;33943;-70
2022/07/21 13:15:06;;;;;;;4.20;1.98;;;;;;;52.90;7.23;100297.53;5588464;31;32995;-70
2022/07/21 13:18:08;;;;;;;4.32;1.75;;;;;;;53.37;7.01;100303.12;5588797;31;34043;-71
2022/07/21 13:21:12;;;;;;;8.55;2.08;;;;;;;54.79;6.37;100303.91;5574909;31;34190;-69
2022/07/21 13:24:14;;;;;;;8.63;1.92;;;;;;;55.08;6.31;100299.81;5588016;31;34020;-70
2022/07/21 13:27:18;;;;;;;7.85;1.83;;;;;;;54.37;6.46;100289.50;5588064;31;32493;-70
2022/07/21 13:30:21;;;;;;;5.60;1.55;;;;;;;54.96;6.35;100287.31;5587861;31;33532;-69
2022/07/21 13:33:24;;;;;;;5.05;1.80;;;;;;;49.61;9.18;100288.56;5588359;31;34313;-69
2022/07/21 13:36:27;;;;;;;4.35;1.67;;;;;;;50.45;8.82;100284.28;5588363;31;34061;-70
2022/07/21 13:39:31;;;;;;;3.95;1.58;;;;;;;52.39;7.46;100282.66;5574678;31;32345;-71
2022/07/21 13:42:54;;;;;;;3.17;1.70;;;;;;;53.22;7.27;100288.69;5576528;31;32449;-71
2022/07/21 13:46:13;;;;;;;2.83;1.55;;;;;;;52.39;7.71;100280.63;5588208;31;34988;-70
2022/07/21 13:49:17;;;;;;;2.67;1.73;;;;;;;52.93;7.41;100279.59;5587281;31;34153;-71
2022/07/21 13:52:20;;;;;;;8.82;1.77;;;;;;;55.00;6.60;100276.62;5587913;31;33953;-70
2022/07/21 13:55:26;;;;;;;7.73;1.80;;;;;;;53.34;7.14;100273.66;5587892;31;33875;-69
2022/07/21 13:58:29;;;;;;;6.87;2.33;;;;;;;49.29;9.40;100267.91;5588025;31;33939;-70
2022/07/21 14:01:32;;;;;;;6.72;1.92;;;;;;;49.73;9.35;100267.34;5587685;31;34007;-70
2022/07/21 14:04:35;;;;;;;3.15;1.80;;;;;;;52.85;7.50;100267.75;5586711;31;34373;-70
2022/07/21 14:07:37;;;;;;;7.05;1.60;;;;;;;53.55;6.24;100263.53;5573150;31;33897;-70
2022/07/21 14:10:42;;;;;;;3.53;1.50;;;;;;;54.15;6.78;100266.03;5586852;31;32850;-70
2022/07/21 14:13:45;;;;;;;3.28;1.87;;;;;;;55.63;6.02;100261.53;5588647;31;35292;-71
2022/07/21 14:16:49;;;;;;;5.00;1.62;;;;;;;55.61;5.56;100252.66;5590273;31;33990;-70
2022/07/21 14:19:51;;;;;;;5.60;1.80;;;;;;;56.14;5.91;100252.88;5590125;31;34689;-70
2022/07/21 14:22:55;;;;;;;2.78;1.60;;;;;;;53.51;6.98;100245.88;5589494;31;34721;-70
2022/07/21 14:25:58;;;;;;;3.87;1.70;;;;;;;50.67;8.08;100239.31;5590251;31;34046;-71
2022/07/21 14:29:03;;;;;;;3.45;1.85;;;;;;;46.91;9.95;100248.94;5590460;31;34027;-70